createdAt,value
2023-03-17T00:01:54.684Z,4.10
2023-03-17T00:04:26.397Z,4.40
2023-03-17T00:06:54.172Z,4.30
2023-03-17T00:09:22.104Z,4.30
2023-03-17T00:11:49.282Z,4.10
2023-03-17T00:14:16.615Z,4.82
2023-03-17T00:16:47.117Z,4.10
2023-03-17T00:19:26.370Z,4.35
2023-03-17T00:21:53.136Z,4.40
2023-03-17T00:24:19.797Z,4.22
2023-03-17T00:26:48.732Z,4.32
2023-03-17T00:29:16.192Z,3.75
2023-03-17T00:31:45.212Z,4.00
2023-03-17T00:34:17.134Z,3.53
2023-03-17T00:36:47.114Z,3.78
2023-03-17T00:41:44.735Z,4.00
2023-03-17T00:44:14.449Z,4.20
2023-03-17T00:46:46.329Z,3.80
2023-03-17T00:51:44.685Z,3.80
2023-03-17T00:54:12.420Z,4.07
2023-03-17T00:56:40.363Z,4.45
2023-03-17T00:59:17.555Z,3.80
2023-03-17T01:01:47.851Z,3.78
2023-03-17T01:04:15.504Z,3.80
2023-03-17T01:06:43.150Z,3.83
2023-03-17T01:09:16.706Z,3.55
2023-03-17T01:11:44.043Z,3.55
2023-03-17T01:14:11.817Z,3.55
2023-03-17T01:16:38.921Z,3.92
2023-03-17T01:19:05.880Z,3.83
2023-03-17T01:21:32.720Z,3.80
2023-03-17T01:24:00.564Z,3.90
2023-03-17T01:26:30.063Z,4.07
2023-03-17T01:28:56.802Z,3.88
2023-03-17T01:31:26.188Z,3.88
2023-03-17T01:33:52.864Z,3.90
2023-03-17T01:36:20.525Z,4.10
2023-03-17T01:38:50.847Z,4.13
2023-03-17T01:41:21.049Z,3.92
2023-03-17T01:43:47.947Z,3.95
2023-03-17T01:46:22.877Z,3.92
2023-03-17T01:49:19.648Z,4.03
2023-03-17T01:51:58.883Z,3.53
2023-03-17T01:55:01.205Z,4.57
2023-03-17T01:57:31.420Z,5.10
2023-03-17T02:00:19.645Z,3.97
2023-03-17T02:02:50.685Z,3.88
2023-03-17T02:05:21.534Z,3.75
2023-03-17T02:07:48.425Z,4.47
2023-03-17T02:10:19.380Z,3.85
2023-03-17T02:12:50.968Z,3.88
2023-03-17T02:15:17.798Z,4.30
2023-03-17T02:17:47.498Z,4.28
2023-03-17T02:20:17.077Z,4.55
2023-03-17T02:22:52.633Z,4.03
2023-03-17T02:25:20.418Z,3.75
2023-03-17T02:27:53.966Z,4.30
2023-03-17T02:30:22.648Z,4.30
2023-03-17T02:32:49.489Z,4.50
2023-03-17T02:35:20.481Z,4.55
2023-03-17T02:37:47.349Z,4.20
2023-03-17T02:40:15.136Z,4.75
2023-03-17T02:42:42.156Z,4.80
2023-03-17T02:45:13.001Z,5.38
2023-03-17T02:47:41.362Z,4.20
2023-03-17T02:50:09.954Z,4.50
2023-03-17T02:52:37.257Z,4.38
2023-03-17T02:55:04.070Z,4.50
2023-03-17T02:57:30.760Z,4.40
2023-03-17T02:59:57.361Z,4.32
2023-03-17T03:02:26.265Z,4.55
2023-03-17T03:04:53.068Z,4.88
2023-03-17T03:07:22.786Z,5.10
2023-03-17T03:09:49.425Z,4.35
2023-03-17T03:12:16.186Z,4.35
2023-03-17T03:14:42.844Z,4.75
2023-03-17T03:17:09.695Z,4.95
2023-03-17T03:19:36.443Z,5.03
2023-03-17T03:22:03.094Z,4.88
2023-03-17T03:24:29.730Z,4.57
2023-03-17T03:26:58.851Z,4.53
2023-03-17T03:29:25.704Z,4.60
2023-03-17T03:31:52.468Z,4.15
2023-03-17T03:34:22.205Z,5.00
2023-03-17T03:36:51.226Z,4.90
2023-03-17T03:39:17.933Z,4.70
2023-03-17T03:41:49.633Z,5.10
2023-03-17T03:44:18.893Z,4.80
2023-03-17T03:46:45.668Z,4.80
2023-03-17T03:49:14.519Z,4.07
2023-03-17T03:51:41.542Z,5.65
2023-03-17T03:54:08.205Z,3.85
2023-03-17T03:56:39.891Z,4.97
2023-03-17T03:59:07.227Z,3.83
2023-03-17T04:01:33.881Z,3.97
2023-03-17T04:04:00.690Z,4.20
2023-03-17T04:06:29.645Z,4.00
2023-03-17T04:08:58.593Z,4.03
2023-03-17T04:11:27.659Z,3.83
2023-03-17T04:13:54.272Z,4.00
2023-03-17T04:16:21.149Z,4.10
2023-03-17T04:18:47.843Z,3.70
2023-03-17T04:21:18.316Z,4.15
2023-03-17T04:23:45.972Z,3.90
2023-03-17T04:26:14.783Z,4.20
2023-03-17T04:28:41.450Z,4.10
2023-03-17T04:31:14.240Z,3.38
2023-03-17T04:33:43.208Z,4.20
2023-03-17T04:36:19.982Z,3.78
2023-03-17T04:38:46.627Z,3.38
2023-03-17T04:41:13.634Z,3.78
2023-03-17T04:43:41.127Z,3.63
2023-03-17T04:46:09.078Z,4.35
2023-03-17T04:48:36.050Z,4.40
2023-03-17T04:51:03.012Z,4.30
2023-03-17T04:53:29.679Z,4.05
2023-03-17T04:55:56.556Z,4.45
2023-03-17T04:58:30.478Z,3.78
2023-03-17T05:00:58.578Z,4.38
2023-03-17T05:03:27.838Z,4.32
2023-03-17T05:05:55.400Z,4.82
2023-03-17T05:08:24.775Z,4.55
2023-03-17T05:10:51.727Z,4.07
2023-03-17T05:13:19.130Z,3.97
2023-03-17T05:15:50.476Z,4.45
2023-03-17T05:18:18.200Z,4.38
2023-03-17T05:20:47.648Z,4.18
2023-03-17T05:23:14.979Z,5.03
2023-03-17T05:25:42.045Z,5.35
2023-03-17T05:28:10.022Z,5.40
2023-03-17T05:30:36.769Z,4.30
2023-03-17T05:33:04.442Z,3.97
2023-03-17T05:35:33.288Z,4.00
2023-03-17T05:38:00.001Z,4.18
2023-03-17T05:40:26.689Z,4.57
2023-03-17T05:42:53.303Z,4.32
2023-03-17T05:45:20.085Z,4.88
2023-03-17T05:47:47.421Z,4.50
2023-03-17T05:50:14.138Z,3.97
2023-03-17T05:52:40.839Z,3.95
2023-03-17T05:55:08.374Z,4.20
2023-03-17T05:57:35.439Z,3.85
2023-03-17T06:00:02.572Z,3.72
2023-03-17T06:02:31.445Z,4.40
2023-03-17T06:04:58.205Z,4.22
2023-03-17T06:07:24.868Z,4.05
2023-03-17T06:09:51.528Z,4.90
2023-03-17T06:12:20.936Z,4.63
2023-03-17T06:14:47.608Z,4.82
2023-03-17T06:17:14.458Z,4.22
2023-03-17T06:19:41.766Z,4.43
2023-03-17T06:22:09.263Z,4.40
2023-03-17T06:24:36.198Z,4.38
2023-03-17T06:27:02.982Z,4.25
2023-03-17T06:29:30.016Z,4.82
2023-03-17T06:32:09.227Z,4.57
2023-03-17T06:34:44.676Z,4.53
2023-03-17T06:37:11.678Z,4.55
2023-03-17T06:39:41.726Z,4.15
2023-03-17T06:42:08.648Z,4.05
2023-03-17T06:44:36.336Z,4.18
2023-03-17T06:47:03.102Z,4.68
2023-03-17T06:49:29.842Z,4.47
2023-03-17T06:51:59.086Z,4.63
2023-03-17T06:54:25.889Z,4.55
2023-03-17T06:56:56.083Z,4.65
2023-03-17T06:59:22.975Z,4.80
2023-03-17T07:01:54.672Z,4.53
2023-03-17T07:04:21.584Z,4.75
2023-03-17T07:06:48.416Z,4.38
2023-03-17T07:09:17.566Z,4.55
2023-03-17T07:11:44.265Z,4.90
2023-03-17T07:14:10.935Z,4.45
2023-03-17T07:16:37.877Z,4.85
2023-03-17T07:19:04.941Z,4.63
2023-03-17T07:21:31.711Z,7.07
2023-03-17T07:24:01.561Z,4.78
2023-03-17T07:26:28.274Z,5.47
2023-03-17T07:28:55.038Z,4.80
2023-03-17T07:31:23.417Z,5.20
2023-03-17T07:33:50.170Z,5.38
2023-03-17T07:36:16.969Z,5.63
2023-03-17T07:38:43.717Z,5.18
2023-03-17T07:41:10.843Z,4.63
2023-03-17T07:43:40.461Z,5.35
2023-03-17T07:46:09.527Z,4.85
2023-03-17T07:48:42.013Z,5.05
2023-03-17T07:51:14.267Z,5.10
2023-03-17T07:53:41.659Z,5.32
2023-03-17T07:56:08.804Z,5.55
2023-03-17T07:58:35.999Z,5.70
2023-03-17T08:01:03.406Z,5.80
2023-03-17T08:03:33.084Z,5.70
2023-03-17T08:06:00.872Z,5.15
2023-03-17T08:08:30.537Z,7.00
2023-03-17T08:11:06.271Z,5.32
2023-03-17T08:13:33.581Z,5.38
2023-03-17T08:16:00.642Z,5.30
2023-03-17T08:18:29.600Z,5.43
2023-03-17T08:20:56.353Z,6.32
2023-03-17T08:23:23.504Z,5.05
2023-03-17T08:25:50.310Z,5.45
2023-03-17T08:28:17.017Z,5.10
2023-03-17T08:30:44.841Z,4.85
2023-03-17T08:33:14.159Z,5.85
2023-03-17T08:35:42.063Z,5.53
2023-03-17T08:38:09.509Z,5.15
2023-03-17T08:40:37.076Z,5.47
2023-03-17T08:43:04.165Z,5.30
2023-03-17T08:45:31.590Z,5.03
2023-03-17T08:47:58.736Z,5.20
2023-03-17T08:50:27.380Z,6.32
2023-03-17T08:52:56.509Z,4.82
2023-03-17T08:55:23.592Z,4.97
2023-03-17T08:57:50.337Z,4.70
2023-03-17T09:00:20.344Z,4.90
2023-03-17T09:02:48.220Z,4.90
2023-03-17T09:05:16.628Z,4.93
2023-03-17T09:07:43.816Z,5.25
2023-03-17T09:10:12.427Z,4.82
2023-03-17T09:12:39.299Z,4.63
2023-03-17T09:15:07.695Z,4.30
2023-03-17T09:17:34.747Z,4.90
2023-03-17T09:20:04.495Z,4.10
2023-03-17T09:22:33.356Z,4.70
2023-03-17T09:25:00.593Z,3.83
2023-03-17T09:27:27.496Z,4.15
2023-03-17T09:29:54.217Z,4.53
2023-03-17T09:32:26.194Z,4.50
2023-03-17T09:34:53.223Z,4.25
2023-03-17T09:37:19.887Z,3.90
2023-03-17T09:39:46.695Z,4.03
2023-03-17T09:42:24.550Z,4.53
2023-03-17T09:45:02.882Z,4.00
2023-03-17T09:47:42.813Z,4.18
2023-03-17T09:50:26.720Z,3.63
2023-03-17T09:53:01.994Z,3.55
2023-03-17T09:55:32.632Z,4.60
2023-03-17T09:58:00.816Z,4.07
2023-03-17T10:00:31.336Z,4.63
2023-03-17T10:02:59.102Z,4.18
2023-03-17T10:05:35.802Z,4.00
2023-03-17T10:08:19.033Z,4.40
2023-03-17T10:11:18.483Z,3.80
2023-03-17T10:13:55.038Z,4.00
2023-03-17T10:16:36.421Z,4.93
2023-03-17T10:19:28.411Z,4.32
2023-03-17T10:22:05.023Z,4.85
2023-03-17T10:24:34.052Z,4.35
2023-03-17T10:27:04.817Z,5.10
2023-03-17T10:29:32.478Z,4.75
2023-03-17T10:31:59.525Z,4.95
2023-03-17T10:34:32.562Z,4.50
2023-03-17T10:37:17.987Z,4.47
2023-03-17T10:39:52.893Z,4.30
2023-03-17T10:42:26.952Z,4.70
2023-03-17T10:44:58.090Z,4.25
2023-03-17T10:48:05.679Z,4.15
2023-03-17T10:50:34.744Z,4.75
2023-03-17T10:53:07.795Z,4.72
2023-03-17T10:55:44.585Z,4.70
2023-03-17T10:58:30.690Z,4.47
2023-03-17T11:01:08.355Z,5.35
2023-03-17T11:03:41.661Z,4.22
2023-03-17T11:06:20.241Z,4.22
2023-03-17T11:08:56.262Z,4.32
2023-03-17T11:11:34.709Z,4.47
2023-03-17T11:14:20.094Z,4.38
2023-03-17T11:17:01.091Z,4.60
2023-03-17T11:20:04.369Z,4.10
2023-03-17T11:22:40.634Z,4.03
2023-03-17T11:25:12.629Z,4.22
2023-03-17T11:27:47.227Z,4.25
2023-03-17T11:30:36.093Z,4.70
2023-03-17T11:33:22.047Z,4.07
2023-03-17T11:36:03.894Z,4.68
2023-03-17T11:38:37.493Z,4.57
2023-03-17T11:41:04.781Z,4.15
2023-03-17T11:44:06.275Z,4.47
2023-03-17T11:46:36.125Z,3.88
2023-03-17T11:49:20.326Z,4.82
2023-03-17T11:52:00.528Z,3.80
2023-03-17T11:54:43.559Z,3.95
2023-03-17T11:57:22.152Z,4.32
2023-03-17T11:59:56.561Z,4.55
2023-03-17T12:02:42.448Z,4.22
2023-03-17T12:05:17.324Z,4.80
2023-03-17T12:07:53.107Z,5.20
2023-03-17T12:10:45.960Z,4.38
2023-03-17T12:13:14.691Z,3.60
2023-03-17T12:15:50.927Z,3.97
2023-03-17T12:18:37.401Z,4.15
2023-03-17T12:21:17.504Z,4.32
2023-03-17T12:23:58.538Z,3.53
2023-03-17T12:26:38.847Z,3.95
2023-03-17T12:29:16.780Z,5.03
2023-03-17T12:31:52.357Z,4.20
2023-03-17T12:34:25.817Z,4.07
2023-03-17T12:36:53.604Z,3.50
2023-03-17T12:39:37.241Z,3.85
2023-03-17T12:42:36.765Z,3.58
2023-03-17T12:45:28.392Z,3.60
2023-03-17T12:48:42.687Z,3.40
2023-03-17T12:51:44.633Z,3.30
2023-03-17T12:54:20.118Z,3.28
2023-03-17T12:56:49.195Z,3.35
2023-03-17T12:59:20.998Z,3.65
2023-03-17T13:02:12.760Z,3.40
2023-03-17T13:04:47.071Z,3.55
2023-03-17T13:07:22.144Z,3.47
2023-03-17T13:09:58.954Z,3.50
2023-03-17T13:12:41.467Z,4.40
2023-03-17T13:15:40.867Z,3.28
2023-03-17T13:18:18.927Z,4.20
2023-03-17T13:21:07.993Z,4.32
2023-03-17T13:23:47.319Z,4.50
2023-03-17T13:26:20.867Z,4.13
2023-03-17T13:28:50.895Z,4.43
2023-03-17T13:31:34.691Z,4.47
2023-03-17T13:34:12.925Z,4.00
2023-03-17T13:36:59.876Z,4.25
2023-03-17T13:39:38.676Z,4.30
2023-03-17T13:42:41.121Z,4.57
2023-03-17T13:45:19.927Z,5.43
2023-03-17T13:47:50.961Z,5.10
2023-03-17T13:50:37.722Z,4.80
2023-03-17T13:53:11.756Z,5.55
2023-03-17T13:55:43.357Z,5.38
2023-03-17T13:58:13.158Z,4.88
2023-03-17T14:00:46.820Z,5.45
2023-03-17T14:03:20.516Z,4.90
2023-03-17T14:08:27.023Z,5.53
2023-03-17T14:11:00.476Z,6.18
2023-03-17T14:13:30.081Z,6.13
2023-03-17T14:16:18.982Z,6.45
2023-03-17T14:18:49.875Z,5.80
2023-03-17T14:21:25.616Z,5.90
2023-03-17T14:24:04.983Z,5.95
2023-03-17T14:26:32.572Z,6.65
2023-03-17T14:29:01.166Z,5.90
2023-03-17T14:31:29.648Z,5.65
2023-03-17T14:34:00.944Z,5.72
2023-03-17T14:36:32.328Z,5.57
2023-03-17T14:39:01.543Z,5.00
2023-03-17T14:41:33.509Z,5.75
2023-03-17T14:44:03.269Z,5.20
2023-03-17T14:46:38.527Z,5.30
2023-03-17T14:49:17.496Z,6.00
2023-03-17T14:51:44.438Z,6.10
2023-03-17T14:54:17.841Z,6.13
2023-03-17T14:56:48.960Z,5.43
2023-03-17T14:59:22.485Z,5.65
2023-03-17T15:01:56.886Z,5.15
2023-03-17T15:04:35.839Z,6.05
2023-03-17T15:07:09.552Z,5.50
2023-03-17T15:09:38.952Z,5.22
2023-03-17T15:12:13.054Z,5.45
2023-03-17T15:14:41.563Z,4.90
2023-03-17T15:17:34.666Z,5.03
2023-03-17T15:20:05.590Z,5.97
2023-03-17T15:23:12.325Z,5.10
2023-03-17T15:25:43.260Z,4.60
2023-03-17T15:28:23.242Z,5.80
2023-03-17T15:30:56.519Z,5.03
2023-03-17T15:33:34.184Z,5.30
2023-03-17T15:36:01.631Z,4.28
2023-03-17T15:38:28.714Z,4.43
2023-03-17T15:40:55.908Z,4.22
2023-03-17T15:43:23.046Z,4.00
2023-03-17T15:45:57.768Z,3.58
2023-03-17T15:48:33.019Z,3.60
2023-03-17T15:51:01.388Z,3.90
2023-03-17T15:53:28.264Z,3.95
2023-03-17T15:55:57.919Z,3.72
2023-03-17T15:58:24.612Z,3.65
2023-03-17T16:00:56.955Z,3.53
2023-03-17T16:03:32.500Z,3.50
2023-03-17T16:06:00.130Z,3.75
2023-03-17T16:08:26.915Z,3.53
2023-03-17T16:10:58.035Z,3.47
2023-03-17T16:13:24.837Z,3.78
2023-03-17T16:16:00.343Z,4.07
2023-03-17T16:18:34.658Z,4.13
2023-03-17T16:21:02.823Z,3.83
2023-03-17T16:23:37.000Z,4.03
2023-03-17T16:26:14.853Z,4.40
2023-03-17T16:28:45.092Z,3.92
2023-03-17T16:31:31.678Z,4.53
2023-03-17T16:33:58.594Z,4.35
2023-03-17T16:36:25.669Z,4.63
2023-03-17T16:38:55.411Z,4.70
2023-03-17T16:41:27.247Z,4.43
2023-03-17T16:43:59.018Z,4.72
2023-03-17T16:46:27.821Z,4.28
2023-03-17T16:48:55.986Z,5.38
2023-03-17T16:51:24.728Z,5.60
2023-03-17T16:53:51.548Z,5.20
2023-03-17T16:56:21.303Z,4.55
2023-03-17T16:58:48.421Z,5.28
2023-03-17T17:01:24.346Z,4.90
2023-03-17T17:03:51.580Z,4.75
2023-03-17T17:06:19.896Z,4.90
2023-03-17T17:08:48.284Z,4.90
2023-03-17T17:11:16.762Z,5.43
2023-03-17T17:13:45.842Z,6.32
2023-03-17T17:16:22.154Z,6.28
2023-03-17T17:18:51.170Z,6.18
2023-03-17T17:21:17.956Z,5.75
2023-03-17T17:23:47.030Z,5.75
2023-03-17T17:26:14.117Z,5.07
2023-03-17T17:28:40.939Z,4.97
2023-03-17T17:31:08.799Z,4.93
2023-03-17T17:33:37.053Z,4.95
2023-03-17T17:36:06.491Z,6.15
2023-03-17T17:38:33.810Z,5.50
2023-03-17T17:41:05.620Z,5.88
2023-03-17T17:43:32.389Z,5.50
2023-03-17T17:45:59.097Z,5.53
2023-03-17T17:48:27.783Z,5.70
2023-03-17T17:50:58.097Z,5.18
2023-03-17T17:53:25.205Z,5.43
2023-03-17T17:55:52.028Z,6.00
2023-03-17T17:58:25.258Z,8.13
2023-03-17T18:00:55.225Z,8.52
2023-03-17T18:03:25.403Z,8.05
2023-03-17T18:05:56.564Z,7.82
2023-03-17T18:08:24.172Z,6.40
2023-03-17T18:10:55.563Z,6.10
2023-03-17T18:13:22.325Z,5.05
2023-03-17T18:15:49.148Z,6.60
2023-03-17T18:18:18.431Z,7.20
2023-03-17T18:20:45.458Z,6.65
2023-03-17T18:23:12.222Z,7.40
2023-03-17T18:25:38.979Z,9.02
2023-03-17T18:28:08.029Z,8.07
2023-03-17T18:30:38.282Z,7.70
2023-03-17T18:33:14.827Z,7.65
2023-03-17T18:35:43.699Z,8.77
2023-03-17T18:38:10.442Z,9.48
2023-03-17T18:40:37.567Z,9.25
2023-03-17T18:43:07.266Z,8.18
2023-03-17T18:45:36.360Z,7.88
2023-03-17T18:48:06.020Z,7.93
2023-03-17T18:50:33.247Z,9.20
2023-03-17T18:53:03.131Z,8.98
2023-03-17T18:55:30.166Z,9.60
2023-03-17T18:57:59.490Z,8.60
2023-03-17T19:00:31.539Z,8.95
2023-03-17T19:02:58.602Z,9.25
2023-03-17T19:05:25.580Z,9.15
2023-03-17T19:07:52.533Z,10.82
2023-03-17T19:10:21.873Z,10.60
2023-03-17T19:12:52.090Z,11.52
2023-03-17T19:15:19.611Z,8.93
2023-03-17T19:17:47.372Z,8.00
2023-03-17T19:20:15.299Z,8.85
2023-03-17T19:22:44.609Z,8.18
2023-03-17T19:25:11.497Z,21.10
2023-03-17T19:27:38.446Z,8.70
2023-03-17T19:30:08.872Z,5.28
2023-03-17T19:32:35.903Z,4.88
2023-03-17T19:35:02.658Z,4.38
2023-03-17T19:37:32.212Z,4.78
2023-03-17T19:40:01.735Z,4.50
2023-03-17T19:42:28.399Z,6.65
2023-03-17T19:44:55.111Z,5.40
2023-03-17T19:47:24.015Z,5.35
2023-03-17T19:49:51.007Z,6.15
2023-03-17T19:52:18.808Z,6.60
2023-03-17T19:54:46.043Z,5.72
2023-03-17T19:57:13.768Z,5.68
2023-03-17T19:59:40.986Z,6.50
2023-03-17T20:02:07.938Z,6.03
2023-03-17T20:04:34.911Z,6.22
2023-03-17T20:07:01.604Z,5.95
2023-03-17T20:09:31.781Z,5.63
2023-03-17T20:12:01.953Z,6.28
2023-03-17T20:14:28.765Z,6.00
2023-03-17T20:16:55.881Z,6.15
2023-03-17T20:19:24.816Z,6.20
2023-03-17T20:21:53.909Z,6.68
2023-03-17T20:24:20.933Z,6.57
2023-03-17T20:26:49.434Z,6.15
2023-03-17T20:29:16.304Z,5.80
2023-03-17T20:31:45.968Z,6.43
2023-03-17T20:34:15.206Z,6.45
2023-03-17T20:36:43.095Z,6.28
2023-03-17T20:39:14.881Z,6.60
2023-03-17T20:41:41.719Z,6.55
2023-03-17T20:44:08.513Z,6.47
2023-03-17T20:46:35.310Z,6.32
2023-03-17T20:49:02.196Z,6.68
2023-03-17T20:51:28.901Z,7.00
2023-03-17T20:53:56.791Z,7.03
2023-03-17T20:56:26.423Z,6.95
2023-03-17T20:58:53.269Z,6.78
2023-03-17T21:01:21.647Z,7.20
2023-03-17T21:03:49.200Z,6.15
2023-03-17T21:06:18.685Z,5.65
2023-03-17T21:08:46.218Z,6.13
2023-03-17T21:11:19.141Z,6.15
2023-03-17T21:13:46.120Z,5.15
2023-03-17T21:16:24.882Z,4.88
2023-03-17T21:18:54.711Z,5.05
2023-03-17T21:21:22.746Z,4.47
2023-03-17T21:23:49.903Z,4.78
2023-03-17T21:26:17.254Z,4.20
2023-03-17T21:28:44.457Z,4.40
2023-03-17T21:31:12.472Z,4.78
2023-03-17T21:33:39.323Z,4.47
2023-03-17T21:36:08.789Z,3.95
2023-03-17T21:38:35.685Z,4.22
2023-03-17T21:41:33.648Z,4.47
2023-03-17T21:44:01.681Z,4.53
2023-03-17T21:46:31.864Z,3.80
2023-03-17T21:49:01.434Z,3.38
2023-03-17T21:51:28.490Z,3.25
2023-03-17T21:53:55.984Z,2.40
2023-03-17T21:56:22.897Z,2.03
2023-03-17T21:58:50.150Z,1.80
2023-03-17T22:01:18.518Z,1.48
2023-03-17T22:03:45.263Z,1.70
2023-03-17T22:06:14.033Z,2.72
2023-03-17T22:08:41.115Z,3.15
2023-03-17T22:11:16.709Z,4.68
2023-03-17T22:13:46.148Z,7.47
2023-03-17T22:16:16.806Z,8.75
2023-03-17T22:18:43.993Z,9.20
2023-03-17T22:21:11.164Z,10.57
2023-03-17T22:23:42.326Z,9.75
2023-03-17T22:26:14.966Z,9.43
2023-03-17T22:28:43.597Z,8.38
2023-03-17T22:31:12.378Z,8.30
2023-03-17T22:33:41.540Z,8.50
2023-03-17T22:36:09.072Z,8.82
2023-03-17T22:38:36.160Z,7.15
2023-03-17T22:41:08.168Z,7.32
2023-03-17T22:43:36.664Z,7.32
2023-03-17T22:46:04.331Z,6.25
2023-03-17T22:48:32.553Z,5.28
2023-03-17T22:51:03.685Z,5.75
2023-03-17T22:53:31.577Z,5.97
2023-03-17T22:56:01.061Z,6.32
2023-03-17T22:58:28.319Z,8.48
2023-03-17T23:00:56.278Z,6.22
2023-03-17T23:03:24.904Z,5.95
2023-03-17T23:05:54.326Z,3.22
2023-03-17T23:08:21.633Z,2.85
2023-03-17T23:10:49.921Z,3.40
2023-03-17T23:13:18.809Z,3.10
2023-03-17T23:15:46.742Z,3.03
2023-03-17T23:18:14.060Z,3.13
2023-03-17T23:20:41.819Z,2.75
2023-03-17T23:23:13.890Z,2.50
2023-03-17T23:25:41.309Z,3.10
2023-03-17T23:28:09.101Z,3.30
2023-03-17T23:30:36.408Z,3.00
2023-03-17T23:33:06.100Z,3.20
2023-03-17T23:35:38.055Z,3.85
2023-03-17T23:38:04.855Z,3.85
2023-03-17T23:40:32.861Z,4.95
2023-03-17T23:43:00.134Z,5.18
2023-03-17T23:45:28.012Z,4.68
2023-03-17T23:47:55.501Z,5.13
2023-03-17T23:50:22.195Z,5.60
2023-03-17T23:52:49.314Z,4.50
2023-03-17T23:55:19.262Z,4.50
2023-03-17T23:57:46.392Z,4.88
